Time;durP1;ratioP1;P1;durP2;ratioP2;P2;SDS_P1;SDS_P2;PMS_P1;PMS_P2;Temp;Humidity;BMP_temperature;BMP_pressure;BME280_temperature;BME280_humidity;BME280_pressure;Samples;Min_cycle;Max_cycle;Signal;HPM_P1;HPM_P2
2023/05/24 00:01:55;;;;;;;9.23;5.22;;;;;;;18.91;66.18;99520.13;7574754;33;40182;-75
2023/05/24 00:06:12;;;;;;;8.75;5.35;;;;;;;19.11;65.81;99512.25;7555994;33;39093;-74
2023/05/24 00:10:28;;;;;;;9.77;5.50;;;;;;;19.05;65.48;99510.81;7555885;33;37965;-74
2023/05/24 00:14:44;;;;;;;8.88;5.03;;;;;;;19.11;65.22;99504.75;7558654;33;37814;-74
2023/05/24 00:19:01;;;;;;;9.00;5.25;;;;;;;19.00;65.79;99520.09;7581415;33;39367;-75
2023/05/24 00:23:17;;;;;;;12.57;5.55;;;;;;;19.19;65.05;99505.81;7581399;33;39959;-74
2023/05/24 00:27:35;;;;;;;9.60;5.65;;;;;;;18.98;65.97;99511.31;7568091;33;39013;-74
2023/05/24 00:31:52;;;;;;;20.15;6.15;;;;;;;19.03;65.83;99508.38;7558573;33;37870;-75
2023/05/24 00:36:08;;;;;;;8.45;5.22;;;;;;;19.08;65.67;99499.88;7555380;33;40174;-75
2023/05/24 00:40:25;;;;;;;9.85;5.55;;;;;;;18.98;66.31;99511.31;7555601;33;40961;-75
2023/05/24 00:44:41;;;;;;;13.90;6.28;;;;;;;18.84;66.74;99505.25;7571568;33;38651;-75
2023/05/24 00:48:59;;;;;;;14.13;7.22;;;;;;;18.76;67.41;99516.00;7580671;33;36815;-74
2023/05/24 00:53:15;;;;;;;13.35;6.55;;;;;;;19.00;66.55;99503.50;7581188;33;39145;-75
2023/05/24 00:57:32;;;;;;;12.55;7.30;;;;;;;18.97;66.70;99504.19;7570882;33;39813;-74
2023/05/24 01:01:48;;;;;;;12.25;6.80;;;;;;;19.14;66.41;99497.72;7555820;33;37838;-74
2023/05/24 01:06:07;;;;;;;14.02;7.85;;;;;;;19.10;66.49;99486.53;7555406;33;37426;-75
2023/05/24 01:10:45;;;;;;;15.90;8.30;;;;;;;19.19;66.09;99499.50;7556041;33;39312;-75
2023/05/24 01:15:09;;;;;;;14.63;8.00;;;;;;;19.06;66.38;99502.19;7555114;33;39993;-74
2023/05/24 01:19:31;;;;;;;17.05;7.72;;;;;;;18.99;66.75;99501.09;7542188;33;37879;-75
2023/05/24 01:23:50;;;;;;;15.93;8.05;;;;;;;18.85;67.47;99507.69;7555930;33;36820;-75
2023/05/24 01:28:10;;;;;;;15.40;7.50;;;;;;;18.97;67.45;99504.19;7569708;33;39463;-75
2023/05/24 01:32:27;;;;;;;12.45;7.30;;;;;;;18.84;67.88;99497.78;7567649;33;40844;-74
2023/05/24 01:36:43;;;;;;;13.45;7.62;;;;;;;18.75;68.39;99491.47;7567066;33;38696;-74
2023/05/24 01:41:07;;;;;;;21.12;8.93;;;;;;;18.83;67.99;99487.84;7580579;33;36972;-74
2023/05/24 01:45:29;;;;;;;14.50;8.23;;;;;;;18.81;68.18;99473.53;7580362;33;39363;-75
2023/05/24 01:49:50;;;;;;;19.73;9.63;;;;;;;18.81;68.37;99483.78;7560888;33;40029;-74
2023/05/24 01:54:06;;;;;;;16.37;9.93;;;;;;;18.71;68.82;99484.97;7541731;33;38103;-74
2023/05/24 01:58:25;;;;;;;20.10;10.35;;;;;;;18.73;68.79;99478.00;7541537;33;37398;-75
2023/05/24 02:02:41;;;;;;;17.48;11.07;;;;;;;18.65;69.19;99478.84;7541281;33;38390;-74
2023/05/24 02:06:58;;;;;;;19.75;10.73;;;;;;;18.82;68.56;99480.72;7554482;33;40607;-74
2023/05/24 02:11:14;;;;;;;19.30;10.88;;;;;;;18.79;68.83;99475.84;7554445;33;38219;-74
2023/05/24 02:15:30;;;;;;;19.45;11.40;;;;;;;18.88;68.33;99470.28;7571693;33;37052;-74
2023/05/24 02:19:47;;;;;;;22.37;12.07;;;;;;;18.68;68.88;99469.91;7580093;33;39503;-75
2023/05/24 02:24:03;;;;;;;16.87;11.48;;;;;;;18.82;68.46;99471.62;7567863;33;39927;-74
2023/05/24 02:28:19;;;;;;;22.85;12.02;;;;;;;18.85;68.40;99471.78;7554206;33;37729;-74
2023/05/24 02:32:36;;;;;;;19.42;12.77;;;;;;;18.67;69.25;99471.03;7554222;33;38284;-74
2023/05/24 02:36:53;;;;;;;20.95;12.82;;;;;;;18.60;69.48;99472.72;7553959;33;39426;-74
2023/05/24 02:41:10;;;;;;;21.92;13.70;;;;;;;18.69;68.95;99471.50;7554125;33;39939;-74
2023/05/24 02:45:27;;;;;;;22.00;13.35;;;;;;;18.69;68.97;99467.94;7560226;33;38003;-74
2023/05/24 02:49:43;;;;;;;19.85;12.73;;;;;;;18.39;70.31;99470.72;7579662;33;38040;-74
2023/05/24 02:53:59;;;;;;;23.85;13.48;;;;;;;18.44;70.06;99477.97;7566309;33;39363;-74
2023/05/24 02:58:16;;;;;;;21.60;13.68;;;;;;;18.34;70.30;99482.72;7579421;33;40836;-74
2023/05/24 03:02:37;;;;;;;22.70;13.82;;;;;;;18.44;70.22;99480.72;7578011;33;38924;-73
2023/05/24 03:06:53;;;;;;;23.30;14.45;;;;;;;18.50;69.95;99469.16;7579428;33;37965;-74
2023/05/24 03:11:10;;;;;;;20.85;12.77;;;;;;;18.51;69.83;99475.53;7579214;33;39158;-74
2023/05/24 03:15:26;;;;;;;21.05;13.07;;;;;;;18.64;69.22;99485.50;7577290;33;39996;-74
2023/05/24 03:19:43;;;;;;;27.25;13.85;;;;;;;18.50;70.20;99477.44;7579066;33;37916;-74
2023/05/24 03:23:59;;;;;;;20.02;12.73;;;;;;;18.39;70.29;99473.47;7562080;33;37397;-73
2023/05/24 03:28:15;;;;;;;20.30;13.23;;;;;;;18.47;70.13;99482.84;7553179;33;40040;-74
2023/05/24 03:32:32;;;;;;;25.73;13.32;;;;;;;18.43;70.16;99479.12;7553044;33;40761;-74
2023/05/24 03:36:48;;;;;;;23.08;12.63;;;;;;;18.50;70.14;99484.94;7552672;33;37976;-74
2023/05/24 03:41:05;;;;;;;23.75;13.15;;;;;;;18.29;71.01;99491.19;7552908;33;37395;-74
2023/05/24 03:45:21;;;;;;;25.27;14.07;;;;;;;18.51;70.36;99492.09;7552772;33;39323;-74
2023/05/24 03:49:53;;;;;;;23.58;13.90;;;;;;;17.90;72.63;99489.53;7552666;33;40844;-74
2023/05/24 03:54:09;;;;;;;24.10;13.73;;;;;;;18.17;71.99;99491.06;7567985;33;38751;-74
2023/05/24 03:58:25;;;;;;;19.85;12.60;;;;;;;18.38;71.33;99497.50;7578141;33;37334;-74
2023/05/24 04:02:42;;;;;;;22.75;12.05;;;;;;;18.35;71.15;99492.63;7576733;33;39302;-74
2023/05/24 04:06:58;;;;;;;24.85;13.15;;;;;;;18.53;70.76;99495.31;7577889;33;40787;-73
2023/05/24 04:11:14;;;;;;;21.42;12.77;;;;;;;18.14;72.10;99500.84;7577777;33;38738;-74
2023/05/24 04:15:31;;;;;;;21.15;12.82;;;;;;;17.98;72.59;99497.78;7577740;33;37979;-74
2023/05/24 04:19:48;;;;;;;20.40;12.95;;;;;;;18.36;71.52;99499.75;7577689;33;39290;-74
2023/05/24 04:24:05;;;;;;;19.15;12.73;;;;;;;18.28;71.52;99503.38;7577745;33;40041;-73
2023/05/24 04:28:22;;;;;;;20.92;12.45;;;;;;;18.52;70.49;99513.00;7581343;33;37614;-73
2023/05/24 04:32:39;;;;;;;19.17;12.15;;;;;;;18.44;70.61;99508.31;7569770;33;37970;-74
2023/05/24 04:36:56;;;;;;;20.75;13.27;;;;;;;18.38;71.83;99527.03;7555317;33;39448;-74
2023/05/24 04:41:13;;;;;;;20.27;12.48;;;;;;;18.31;71.89;99526.72;7578109;33;40856;-73
2023/05/24 04:45:31;;;;;;;17.87;12.10;;;;;;;18.13;72.62;99526.00;7581083;33;38126;-70
2023/05/24 04:49:48;;;;;;;19.10;12.65;;;;;;;18.28;72.53;99536.50;7581233;33;37108;-70
2023/05/24 04:54:07;;;;;;;21.37;12.45;;;;;;;18.09;73.77;99534.13;7581096;33;39325;-69
2023/05/24 04:58:24;;;;;;;18.15;11.43;;;;;;;18.20;72.74;99549.16;7580971;33;40845;-70
2023/05/24 05:02:40;;;;;;;18.30;11.63;;;;;;;18.14;72.67;99561.53;7566503;33;38665;-70
2023/05/24 05:06:57;;;;;;;17.45;12.10;;;;;;;18.09;72.79;99558.13;7542082;33;38045;-69
2023/05/24 05:11:14;;;;;;;20.35;12.05;;;;;;;18.07;72.62;99554.88;7576821;33;40134;-70
2023/05/24 05:15:30;;;;;;;18.67;11.98;;;;;;;18.47;71.54;99563.69;7580722;33;40003;-70
2023/05/24 05:19:46;;;;;;;22.90;12.10;;;;;;;18.19;71.98;99558.56;7561380;33;38708;-70
2023/05/24 05:24:02;;;;;;;16.95;11.25;;;;;;;18.42;71.19;99557.53;7555052;33;37528;-69
2023/05/24 05:28:19;;;;;;;19.12;11.02;;;;;;;18.21;72.00;99561.00;7554970;33;39652;-70
2023/05/24 05:32:36;;;;;;;18.15;11.38;;;;;;;18.58;70.58;99572.44;7554982;33;40025;-69
2023/05/24 05:36:52;;;;;;;17.80;11.48;;;;;;;18.51;70.65;99569.38;7554333;33;38801;-74
2023/05/24 05:41:09;;;;;;;20.90;12.00;;;;;;;18.42;70.28;99577.69;7554819;33;37957;-74
2023/05/24 05:45:26;;;;;;;21.05;11.68;;;;;;;18.04;71.87;99578.41;7555529;33;39994;-74
2023/05/24 05:49:42;;;;;;;19.05;11.65;;;;;;;18.41;70.43;99570.53;7554749;33;40827;-74
2023/05/24 05:53:58;;;;;;;20.45;12.23;;;;;;;18.20;71.47;99570.44;7554644;33;37824;-74
2023/05/24 05:58:15;;;;;;;17.60;12.02;;;;;;;18.39;71.30;99573.63;7554760;33;37364;-75
2023/05/24 06:02:31;;;;;;;20.75;12.32;;;;;;;18.31;71.55;99579.97;7569103;33;39418;-73
2023/05/24 06:06:48;;;;;;;23.55;12.93;;;;;;;18.06;71.75;99583.59;7580234;33;40796;-74
2023/05/24 06:11:05;;;;;;;24.48;12.57;;;;;;;18.05;71.79;99584.75;7580125;33;38768;-74
2023/05/24 06:15:21;;;;;;;22.40;12.95;;;;;;;18.23;71.20;99594.63;7565675;33;37213;-74
2023/05/24 06:19:37;;;;;;;20.20;13.02;;;;;;;17.91;72.52;99582.97;7580145;33;39135;-74
2023/05/24 06:23:57;;;;;;;20.60;12.80;;;;;;;18.27;71.96;99589.25;7578509;33;39713;-74
2023/05/24 06:28:13;;;;;;;20.25;12.60;;;;;;;18.35;71.58;99591.97;7580030;33;37987;-74
2023/05/24 06:32:29;;;;;;;21.55;13.68;;;;;;;18.52;70.94;99591.13;7580057;33;38373;-73
2023/05/24 06:36:47;;;;;;;17.52;10.60;;;;;;;18.42;70.59;99594.25;7579680;33;39131;-70
2023/05/24 06:41:03;;;;;;;17.87;11.48;;;;;;;19.06;69.82;99595.31;7579836;33;40484;-70
2023/05/24 06:45:19;;;;;;;18.98;12.45;;;;;;;19.07;69.59;99596.91;7561055;33;37612;-72
2023/05/24 06:49:36;;;;;;;18.62;11.48;;;;;;;19.11;69.11;99598.69;7563127;33;38138;-76
2023/05/24 06:53:52;;;;;;;19.37;12.68;;;;;;;19.16;68.65;99599.63;7561680;33;39238;-73
2023/05/24 06:58:13;;;;;;;19.35;11.65;;;;;;;19.14;68.54;99597.19;7553377;33;39926;-70
2023/05/24 07:02:29;;;;;;;16.20;10.80;;;;;;;19.53;67.82;99597.94;7553560;33;38757;-72
2023/05/24 07:06:45;;;;;;;21.75;10.88;;;;;;;19.40;67.90;99599.78;7552616;33;38336;-73
2023/05/24 07:11:02;;;;;;;19.08;11.93;;;;;;;19.72;67.73;99594.69;7552137;33;39928;-73
2023/05/24 07:15:18;;;;;;;17.50;11.63;;;;;;;20.03;67.33;99593.47;7541880;33;41061;-70
2023/05/24 07:19:34;;;;;;;15.32;10.55;;;;;;;20.38;66.34;99598.66;7552716;33;38469;-70
2023/05/24 07:23:51;;;;;;;16.23;10.65;;;;;;;20.01;66.42;99602.09;7553313;33;37419;-70
2023/05/24 07:28:07;;;;;;;16.00;9.75;;;;;;;20.09;65.95;99603.16;7553142;33;39404;-70
2023/05/24 07:32:24;;;;;;;15.40;9.65;;;;;;;20.16;64.85;99603.44;7558693;33;39852;-70
2023/05/24 07:36:41;;;;;;;18.55;9.82;;;;;;;20.22;66.08;99606.78;7553322;33;38000;-71
2023/05/24 07:41:02;;;;;;;15.07;9.57;;;;;;;20.39;66.01;99605.81;7552831;33;38068;-75
2023/05/24 07:45:18;;;;;;;15.73;9.65;;;;;;;20.44;64.33;99603.63;7552994;33;38432;-75
2023/05/24 07:49:34;;;;;;;14.60;9.75;;;;;;;20.75;63.04;99607.06;7554688;33;40725;-76
2023/05/24 07:53:51;;;;;;;14.05;9.02;;;;;;;20.80;63.97;99610.41;7552680;33;37987;-77
2023/05/24 07:58:07;;;;;;;15.38;9.48;;;;;;;20.84;62.88;99621.59;7552747;33;37205;-77
2023/05/24 08:02:25;;;;;;;14.63;9.18;;;;;;;21.11;61.41;99630.38;7556012;33;39196;-77
2023/05/24 08:06:41;;;;;;;12.82;8.88;;;;;;;20.92;60.90;99633.72;7555963;33;40828;-77
2023/05/24 08:10:58;;;;;;;11.77;7.80;;;;;;;21.04;63.25;99644.00;7555762;33;38165;-77
2023/05/24 08:15:14;;;;;;;11.10;7.70;;;;;;;21.49;59.89;99645.88;7555861;33;38092;-76
2023/05/24 08:19:34;;;;;;;11.55;7.85;;;;;;;21.95;57.89;99640.91;7555866;33;40104;-75
2023/05/24 08:23:50;;;;;;;13.70;7.95;;;;;;;21.56;57.67;99640.56;7551255;33;40169;-77
2023/05/24 08:28:07;;;;;;;11.23;7.53;;;;;;;21.99;59.48;99636.28;7532519;33;37993;-74
2023/05/24 08:32:23;;;;;;;11.70;7.47;;;;;;;21.86;59.36;99645.81;7549268;33;37945;-75
2023/05/24 08:36:42;;;;;;;15.13;7.22;;;;;;;21.71;57.49;99642.63;7559696;33;39209;-74
2023/05/24 08:40:59;;;;;;;12.70;6.55;;;;;;;21.92;56.85;99649.94;7575311;33;39901;-75
2023/05/24 08:45:16;;;;;;;11.50;6.28;;;;;;;22.08;56.59;99642.47;7561826;33;38070;-76
2023/05/24 08:49:33;;;;;;;12.88;7.12;;;;;;;22.39;56.12;99638.22;7573081;33;37082;-76
2023/05/24 08:53:49;;;;;;;10.70;6.37;;;;;;;22.81;54.99;99640.50;7557649;33;40247;-76
2023/05/24 08:58:06;;;;;;;11.75;5.97;;;;;;;22.51;54.72;99645.69;7556916;33;39466;-77
2023/05/24 09:02:23;;;;;;;12.52;6.32;;;;;;;22.39;55.17;99649.31;7540145;33;38624;-76
2023/05/24 09:06:39;;;;;;;13.40;6.47;;;;;;;22.33;56.87;99650.72;7556113;33;37968;-76
2023/05/24 09:10:56;;;;;;;10.98;5.60;;;;;;;23.07;56.33;99647.53;7542629;33;39626;-76
2023/05/24 09:15:13;;;;;;;12.32;6.22;;;;;;;22.94;55.78;99646.78;7537513;33;40936;-75
2023/05/24 09:19:29;;;;;;;11.05;5.65;;;;;;;23.37;54.76;99647.03;7550658;33;37538;-79
2023/05/24 09:23:45;;;;;;;9.18;5.68;;;;;;;23.58;54.27;99653.09;7537678;33;36860;-69
2023/05/24 09:28:06;;;;;;;9.93;6.37;;;;;;;23.97;51.54;99647.62;7531949;33;39903;-70
2023/05/24 09:32:23;;;;;;;8.27;5.82;;;;;;;24.15;51.33;99653.53;7554667;33;40834;-79
2023/05/24 09:36:41;;;;;;;9.60;5.50;;;;;;;24.17;51.80;99650.41;7554553;33;38585;-76
2023/05/24 09:41:07;;;;;;;8.60;5.80;;;;;;;24.00;52.17;99646.06;7554952;33;37173;-75
2023/05/24 09:45:23;;;;;;;14.23;5.90;;;;;;;24.55;49.99;99645.97;7554788;33;39312;-77
2023/05/24 09:49:42;;;;;;;9.30;5.20;;;;;;;24.58;50.33;99644.41;7541494;33;40013;-76
2023/05/24 09:54:02;;;;;;;7.28;5.20;;;;;;;24.55;48.95;99635.63;7554637;33;36867;-77
2023/05/24 09:58:18;;;;;;;8.88;5.30;;;;;;;24.68;49.51;99647.41;7554594;33;37223;-77
2023/05/24 10:02:35;;;;;;;7.47;4.90;;;;;;;24.71;48.81;99652.22;7554633;33;39453;-77
2023/05/24 10:07:07;;;;;;;10.30;5.87;;;;;;;24.59;48.37;99654.41;7554555;33;40834;-77
2023/05/24 10:11:24;;;;;;;8.77;5.60;;;;;;;25.08;45.38;99648.09;7554386;33;37764;-76
2023/05/24 10:15:41;;;;;;;7.95;4.72;;;;;;;24.30;47.52;99656.59;7554390;33;37835;-77
2023/05/24 10:19:57;;;;;;;9.70;4.82;;;;;;;24.10;47.47;99656.63;7554230;33;39460;-77
2023/05/24 10:24:18;;;;;;;8.45;5.62;;;;;;;24.44;49.65;99659.69;7540151;33;39769;-76
2023/05/24 10:28:59;;;;;;;11.82;4.68;;;;;;;25.19;47.14;99651.84;7541546;33;38708;-76
2023/05/24 10:33:17;;;;;;;12.23;4.65;;;;;;;25.80;44.53;99655.56;7539891;33;37771;-76
2023/05/24 10:37:34;;;;;;;8.80;4.62;;;;;;;25.60;43.83;99649.31;7551204;33;39374;-75
2023/05/24 10:41:54;;;;;;;8.32;4.57;;;;;;;25.92;46.17;99651.72;7579384;33;40554;-75
2023/05/24 10:46:13;;;;;;;9.00;4.65;;;;;;;25.80;44.03;99650.00;7561852;33;38784;-78
2023/05/24 10:50:29;;;;;;;8.77;5.45;;;;;;;25.60;45.14;99656.88;7553239;33;35993;-77
2023/05/24 10:55:07;;;;;;;7.65;4.87;;;;;;;25.50;45.00;99663.91;7553922;33;39227;-78
2023/05/24 10:59:36;;;;;;;7.43;4.80;;;;;;;24.90;47.04;99658.94;7553798;33;41214;-76
2023/05/24 11:04:05;;;;;;;10.15;5.00;;;;;;;24.83;45.83;99653.25;7563729;33;38021;-76
2023/05/24 11:08:42;;;;;;;6.65;4.57;;;;;;;24.18;46.41;99663.13;7579355;33;37286;-76
2023/05/24 11:13:06;;;;;;;8.63;5.03;;;;;;;24.26;46.29;99656.53;7553032;33;40191;-76
2023/05/24 11:17:23;;;;;;;9.40;4.32;;;;;;;24.63;47.89;99650.50;7552473;33;40201;-76
2023/05/24 11:21:42;;;;;;;6.00;4.10;;;;;;;24.61;47.08;99649.25;7553046;33;38063;-77
2023/05/24 11:25:58;;;;;;;8.93;4.60;;;;;;;24.81;45.72;99644.44;7553297;33;37779;-77
2023/05/24 11:30:16;;;;;;;5.93;4.00;;;;;;;24.67;44.58;99634.66;7553089;33;39401;-80
2023/05/24 11:34:33;;;;;;;6.05;4.30;;;;;;;24.47;45.19;99630.25;7552921;33;40071;-77
2023/05/24 11:38:52;;;;;;;11.20;4.57;;;;;;;24.80;46.29;99631.66;7555048;33;37723;-78
2023/05/24 11:43:13;;;;;;;7.43;3.97;;;;;;;25.18;45.70;99638.28;7553330;33;37136;-76
2023/05/24 11:47:34;;;;;;;7.18;4.10;;;;;;;25.04;43.58;99638.84;7555048;33;40459;-77
2023/05/24 11:51:56;;;;;;;7.12;4.15;;;;;;;25.24;44.17;99634.00;7543280;33;40148;-77
2023/05/24 11:56:12;;;;;;;8.27;4.40;;;;;;;25.27;43.14;99639.66;7544350;33;37978;-75
2023/05/24 12:00:29;;;;;;;6.50;4.32;;;;;;;24.50;44.22;99629.53;7552492;33;36807;-70
2023/05/24 12:04:46;;;;;;;6.60;4.45;;;;;;;25.00;43.91;99618.47;7573111;33;38895;-69
2023/05/24 12:09:04;;;;;;;6.78;4.28;;;;;;;24.94;43.64;99626.34;7556372;33;40021;-80
2023/05/24 12:13:25;;;;;;;6.65;3.85;;;;;;;25.48;42.74;99622.41;7557034;33;37907;-78
2023/05/24 12:17:42;;;;;;;6.37;3.97;;;;;;;25.83;43.03;99621.28;7568308;33;37855;-78
2023/05/24 12:21:59;;;;;;;9.50;4.32;;;;;;;26.07;42.88;99622.00;7570127;33;40274;-78
2023/05/24 12:26:21;;;;;;;8.07;4.00;;;;;;;26.03;40.74;99616.38;7581488;33;40823;-78
2023/05/24 12:30:45;;;;;;;10.10;3.73;;;;;;;26.05;40.68;99625.19;7578314;33;38885;-79
2023/05/24 12:35:04;;;;;;;6.07;3.67;;;;;;;25.66;43.14;99624.66;7578421;33;37258;-78
2023/05/24 12:39:32;;;;;;;7.75;4.37;;;;;;;25.63;41.71;99623.44;7580112;33;39124;-79
2023/05/24 12:43:51;;;;;;;9.70;3.97;;;;;;;25.75;41.25;99628.00;7568696;33;40081;-78
2023/05/24 12:48:07;;;;;;;7.65;4.18;;;;;;;25.24;42.65;99622.84;7580498;33;37781;-78
2023/05/24 12:52:24;;;;;;;6.72;4.10;;;;;;;24.76;43.86;99619.66;7568096;33;37190;-78
2023/05/24 12:56:41;;;;;;;6.45;4.28;;;;;;;24.56;44.29;99608.59;7581232;33;39033;-78
2023/05/24 13:00:58;;;;;;;6.35;4.10;;;;;;;24.61;43.01;99613.03;7581083;33;39824;-78
2023/05/24 13:05:15;;;;;;;7.28;3.95;;;;;;;24.61;43.51;99608.28;7581100;33;38698;-78
2023/05/24 13:09:32;;;;;;;8.18;4.12;;;;;;;24.52;43.99;99604.87;7581019;33;37386;-78
2023/05/24 13:13:49;;;;;;;6.60;3.78;;;;;;;25.11;43.80;99603.53;7580899;33;40156;-78
2023/05/24 13:18:06;;;;;;;5.28;3.70;;;;;;;24.69;44.22;99600.84;7580846;33;39765;-78
2023/05/24 13:22:22;;;;;;;6.05;3.75;;;;;;;25.36;42.48;99602.31;7581021;33;38192;-79
2023/05/24 13:26:38;;;;;;;6.55;3.47;;;;;;;25.25;43.24;99611.34;7580900;33;37190;-78
2023/05/24 13:30:55;;;;;;;5.05;3.47;;;;;;;25.72;43.61;99605.59;7567647;33;39323;-78
2023/05/24 13:35:11;;;;;;;7.87;3.83;;;;;;;25.76;41.10;99601.66;7580560;33;40448;-78
2023/05/24 13:39:27;;;;;;;7.65;3.60;;;;;;;25.73;42.21;99599.63;7580589;33;37604;-78
2023/05/24 13:43:44;;;;;;;5.50;3.40;;;;;;;26.40;42.04;99603.63;7580172;33;36900;-78
2023/05/24 13:48:02;;;;;;;7.25;4.00;;;;;;;26.43;41.54;99597.25;7580531;33;39437;-78
2023/05/24 13:52:19;;;;;;;6.40;3.67;;;;;;;26.68;42.15;99602.31;7580542;33;40009;-78
2023/05/24 13:56:37;;;;;;;6.37;3.60;;;;;;;26.43;40.64;99600.84;7566939;33;37837;-78
2023/05/24 14:00:55;;;;;;;5.22;3.40;;;;;;;26.53;39.41;99604.94;7580739;33;39119;-78
2023/05/24 14:05:11;;;;;;;5.65;3.33;;;;;;;26.42;40.28;99592.84;7580439;33;40128;-79
2023/05/24 14:09:30;;;;;;;6.57;3.80;;;;;;;26.48;41.36;99593.31;7580449;33;40174;-78
2023/05/24 14:13:47;;;;;;;5.25;3.37;;;;;;;26.13;39.42;99592.56;7580297;33;37996;-79
2023/05/24 14:18:07;;;;;;;6.50;3.20;;;;;;;25.78;40.06;99599.28;7580341;33;36494;-80
2023/05/24 14:22:24;;;;;;;6.03;3.28;;;;;;;25.93;39.93;99582.72;7580288;33;39254;-79
2023/05/24 14:26:41;;;;;;;5.82;3.67;;;;;;;25.80;40.82;99588.56;7580151;33;40141;-78
2023/05/24 14:30:57;;;;;;;6.15;3.35;;;;;;;25.99;42.25;99589.59;7580026;33;38806;-79
2023/05/24 14:35:13;;;;;;;5.57;3.85;;;;;;;26.33;40.87;99597.97;7579849;33;36725;-78
2023/05/24 14:39:30;;;;;;;7.62;3.28;;;;;;;26.39;39.43;99602.81;7580027;33;39279;-78
2023/05/24 14:43:46;;;;;;;5.43;3.40;;;;;;;26.02;40.31;99594.44;7580090;33;39904;-78
2023/05/24 14:48:03;;;;;;;5.50;3.30;;;;;;;25.64;39.46;99596.31;7579825;33;38875;-79
2023/05/24 14:52:20;;;;;;;7.57;3.53;;;;;;;25.55;43.04;99616.16;7580025;33;37569;-79
2023/05/24 14:56:36;;;;;;;4.68;3.40;;;;;;;25.71;40.60;99612.37;7579771;33;39299;-79
2023/05/24 15:00:53;;;;;;;7.68;3.10;;;;;;;25.70;42.01;99611.56;7579554;33;40001;-79
2023/05/24 15:05:09;;;;;;;5.15;3.50;;;;;;;25.43;41.73;99625.53;7579608;33;37719;-80
2023/05/24 15:09:26;;;;;;;5.50;3.50;;;;;;;25.03;42.82;99617.72;7578933;33;36823;-80
2023/05/24 15:13:42;;;;;;;6.03;3.40;;;;;;;24.74;42.50;99612.47;7579514;33;39395;-79
2023/05/24 15:17:58;;;;;;;5.80;3.35;;;;;;;25.02;42.49;99610.53;7579257;33;40760;-79
2023/05/24 15:22:15;;;;;;;5.68;3.50;;;;;;;24.63;43.45;99608.72;7579115;33;38511;-80
2023/05/24 15:26:31;;;;;;;5.22;3.40;;;;;;;24.33;42.91;99602.94;7579156;33;37301;-79
2023/05/24 15:30:47;;;;;;;8.10;3.47;;;;;;;24.44;43.76;99605.91;7578940;33;39045;-79
2023/05/24 15:35:05;;;;;;;5.50;3.60;;;;;;;24.95;42.08;99618.78;7578804;33;40023;-79
2023/05/24 15:39:22;;;;;;;10.02;3.75;;;;;;;24.44;43.33;99608.72;7578846;33;37650;-79
2023/05/24 15:43:38;;;;;;;8.80;3.75;;;;;;;24.97;44.04;99600.50;7578943;33;37970;-79
2023/05/24 15:47:54;;;;;;;10.30;3.83;;;;;;;25.04;41.97;99599.81;7578668;33;39356;-79
2023/05/24 15:52:11;;;;;;;5.55;3.25;;;;;;;24.60;43.10;99617.00;7578612;33;41007;-79
2023/05/24 15:56:28;;;;;;;6.75;3.50;;;;;;;24.60;40.80;99628.16;7578359;33;38107;-79
2023/05/24 16:00:44;;;;;;;6.72;3.95;;;;;;;24.74;42.02;99620.03;7578294;33;37132;-79
2023/05/24 16:05:00;;;;;;;7.28;4.22;;;;;;;24.48;43.04;99632.69;7578164;33;39345;-79
2023/05/24 16:09:17;;;;;;;10.32;4.03;;;;;;;24.83;43.56;99619.78;7564670;33;40805;-79
2023/05/24 16:13:33;;;;;;;8.20;4.20;;;;;;;25.11;43.76;99619.44;7577684;33;38780;-79
2023/05/24 16:17:50;;;;;;;7.05;3.85;;;;;;;24.50;43.86;99612.81;7577996;33;37819;-79
2023/05/24 16:22:07;;;;;;;6.22;4.03;;;;;;;24.67;44.15;99611.56;7580295;33;40052;-79
2023/05/24 16:26:23;;;;;;;6.80;4.12;;;;;;;24.83;44.88;99623.38;7581451;33;40097;-80
2023/05/24 16:30:40;;;;;;;6.22;3.92;;;;;;;24.45;45.43;99629.84;7581448;33;38667;-79
2023/05/24 16:34:56;;;;;;;7.35;4.07;;;;;;;24.50;46.01;99635.09;7581596;33;37033;-80
2023/05/24 16:39:13;;;;;;;6.62;4.45;;;;;;;24.31;46.58;99639.53;7581221;33;39447;-80
2023/05/24 16:43:29;;;;;;;9.48;3.75;;;;;;;24.05;46.64;99647.75;7581326;33;40167;-79
2023/05/24 16:47:45;;;;;;;6.78;4.50;;;;;;;24.43;46.07;99646.12;7581222;33;38743;-79
2023/05/24 16:52:02;;;;;;;6.93;3.97;;;;;;;24.45;46.31;99654.91;7581305;33;38008;-78
2023/05/24 16:56:19;;;;;;;9.52;3.92;;;;;;;24.32;45.48;99666.22;7581170;33;40161;-80
2023/05/24 17:00:35;;;;;;;8.02;3.80;;;;;;;24.10;47.17;99669.75;7581063;33;40819;-79
2023/05/24 17:04:51;;;;;;;6.18;3.80;;;;;;;23.57;49.12;99668.16;7581099;33;38529;-79
2023/05/24 17:09:08;;;;;;;6.22;3.85;;;;;;;24.02;47.64;99671.56;7581084;33;36873;-79
2023/05/24 17:13:27;;;;;;;6.53;3.80;;;;;;;23.89;48.40;99684.81;7581081;33;39390;-79
2023/05/24 17:17:44;;;;;;;16.42;4.47;;;;;;;24.13;46.79;99680.97;7580958;33;40870;-80
2023/05/24 17:22:01;;;;;;;7.00;3.90;;;;;;;24.22;47.67;99677.94;7580755;33;37900;-80
2023/05/24 17:26:17;;;;;;;6.07;3.70;;;;;;;24.03;47.65;99677.94;7580934;33;37323;-80
2023/05/24 17:30:33;;;;;;;7.93;3.70;;;;;;;23.92;48.33;99677.69;7580715;33;39351;-80
2023/05/24 17:34:50;;;;;;;7.22;3.60;;;;;;;23.77;48.41;99676.56;7580505;33;40669;-79
2023/05/24 17:39:06;;;;;;;6.32;3.47;;;;;;;23.73;48.24;99686.81;7580487;33;38238;-79
2023/05/24 17:43:27;;;;;;;5.28;3.42;;;;;;;23.76;48.19;99686.09;7580699;33;37122;-79
2023/05/24 17:47:43;;;;;;;5.60;3.67;;;;;;;23.32;49.29;99694.59;7580750;33;39047;-79
2023/05/24 17:52:00;;;;;;;6.05;3.45;;;;;;;23.00;49.50;99700.12;7580671;33;40680;-79
2023/05/24 17:56:17;;;;;;;6.05;3.50;;;;;;;23.16;49.43;99697.38;7580569;33;37894;-80
2023/05/24 18:00:33;;;;;;;10.77;3.72;;;;;;;23.03;50.00;99705.78;7580494;33;37028;-79
2023/05/24 18:04:51;;;;;;;5.32;3.67;;;;;;;22.93;50.09;99702.75;7580506;33;39088;-80
2023/05/24 18:09:08;;;;;;;11.60;3.58;;;;;;;22.96;50.20;99713.16;7580478;33;38397;-79
2023/05/24 18:13:25;;;;;;;6.10;3.97;;;;;;;22.97;50.39;99723.06;7580380;33;38710;-79
2023/05/24 18:17:41;;;;;;;6.25;3.72;;;;;;;22.84;50.56;99728.72;7573141;33;37413;-78
2023/05/24 18:21:58;;;;;;;7.45;3.70;;;;;;;22.61;52.01;99727.66;7536378;33;39132;-76
2023/05/24 18:26:14;;;;;;;6.97;3.60;;;;;;;22.41;51.44;99741.41;7540749;33;40045;-77
2023/05/24 18:30:30;;;;;;;5.90;3.50;;;;;;;22.53;51.27;99743.34;7556201;33;38639;-77
2023/05/24 18:34:47;;;;;;;8.05;4.10;;;;;;;22.26;53.10;99751.25;7572511;33;37135;-77
2023/05/24 18:39:03;;;;;;;8.80;3.60;;;;;;;22.55;51.50;99762.44;7553501;33;40168;-76
2023/05/24 18:43:19;;;;;;;6.00;3.40;;;;;;;22.08;52.02;99772.94;7553691;33;41521;-77
2023/05/24 18:47:35;;;;;;;6.28;3.70;;;;;;;22.33;51.25;99775.69;7554120;33;37576;-79
2023/05/24 18:51:52;;;;;;;6.18;3.40;;;;;;;22.21;52.09;99782.06;7540811;33;36850;-78
2023/05/24 18:56:08;;;;;;;6.25;3.25;;;;;;;21.98;52.51;99778.97;7554095;33;39313;-77
2023/05/24 19:00:25;;;;;;;10.43;4.10;;;;;;;21.98;52.75;99786.50;7554041;33;39955;-76
2023/05/24 19:04:46;;;;;;;5.65;3.47;;;;;;;22.15;51.99;99782.66;7553796;33;37591;-76
2023/05/24 19:09:03;;;;;;;6.93;3.40;;;;;;;21.87;52.93;99784.19;7553678;33;37530;-76
2023/05/24 19:13:19;;;;;;;6.43;3.92;;;;;;;21.76;52.80;99796.91;7553792;33;39530;-76
2023/05/24 19:17:35;;;;;;;7.90;4.32;;;;;;;21.67;53.49;99796.22;7551816;33;40017;-76
2023/05/24 19:21:53;;;;;;;9.82;4.45;;;;;;;21.68;53.29;99798.66;7553603;33;37937;-76
2023/05/24 19:26:10;;;;;;;8.10;4.50;;;;;;;21.38;54.04;99807.12;7553550;33;36871;-75
2023/05/24 19:30:26;;;;;;;9.55;3.97;;;;;;;21.49;53.87;99812.25;7550599;33;39384;-74
2023/05/24 19:34:43;;;;;;;6.90;4.07;;;;;;;21.39;54.39;99819.84;7540182;33;41556;-75
2023/05/24 19:39:00;;;;;;;7.62;4.18;;;;;;;21.29;54.61;99820.28;7543831;33;37939;-75
2023/05/24 19:43:18;;;;;;;10.13;4.70;;;;;;;21.29;54.50;99820.28;7553127;33;38172;-75
2023/05/24 19:47:35;;;;;;;7.47;4.37;;;;;;;21.13;55.13;99828.47;7537090;33;39541;-75
2023/05/24 19:51:57;;;;;;;12.70;5.03;;;;;;;20.90;55.81;99821.69;7530110;33;39944;-76
2023/05/24 19:56:22;;;;;;;10.90;4.75;;;;;;;20.75;56.15;99825.91;7547516;33;37951;-76
2023/05/24 20:00:38;;;;;;;7.35;4.05;;;;;;;20.81;55.96;99832.84;7563266;33;37917;-75